Time;durP1;ratioP1;P1;durP2;ratioP2;P2;SDS_P1;SDS_P2;PMS_P1;PMS_P2;Temp;Humidity;BMP_temperature;BMP_pressure;BME280_temperature;BME280_humidity;BME280_pressure;Samples;Min_cycle;Max_cycle;Signal;HPM_P1;HPM_P2
2023/02/27 00:01:21;;;;;;;;;8.25;6.50;;;;;-147.17;100.00;2957.06;5020691;28;51012;-50
2023/02/27 00:03:46;;;;;;;;;7.00;6.50;;;;;-147.17;100.00;2957.06;5024677;28;51120;-57
2023/02/27 00:06:11;;;;;;;;;5.75;5.75;;;;;-147.17;100.00;2708.13;5029502;28;51015;-53
2023/02/27 00:08:37;;;;;;;;;5.25;5.00;;;;;-147.17;100.00;2459.22;5014181;28;52236;-52
2023/02/27 00:11:02;;;;;;;;;7.00;6.50;;;;;-147.17;100.00;2459.22;5012527;28;52676;-51
2023/02/27 00:13:28;;;;;;;;;8.25;8.25;;;;;-147.17;100.00;2210.31;5028592;28;51249;-52
2023/02/27 00:15:55;;;;;;;;;5.25;5.00;;;;;-147.17;100.00;1961.44;5018887;28;51092;-51
2023/02/27 00:18:20;;;;;;;;;3.00;3.00;;;;;-147.17;100.00;1712.56;5017834;28;52242;-49
2023/02/27 00:20:47;;;;;;;;;8.25;8.00;;;;;-147.17;100.00;1463.72;5024402;28;51169;-50
2023/02/27 00:23:14;;;;;;;;;5.75;5.00;;;;;-147.17;100.00;966.09;5006268;28;51160;-56
2023/02/27 00:25:40;;;;;;;;;6.25;5.75;;;;;-147.17;100.00;717.28;5029986;28;51260;-49
2023/02/27 00:28:08;;;;;;;;;7.50;7.50;;;;;-147.17;100.00;966.09;5021311;28;52500;-50
2023/02/27 00:30:33;;;;;;;;;5.75;5.50;;;;;-147.17;100.00;468.50;5029270;28;51194;-49
2023/02/27 00:32:59;;;;;;;;;8.50;7.50;;;;;-147.17;100.00;219.72;5027418;28;50864;-49
2023/02/27 00:35:24;;;;;;;;;6.25;5.50;;;;;-147.17;100.00;-277.75;5019142;28;51303;-49
2023/02/27 00:37:50;;;;;;;;;2.50;2.50;;;;;-147.17;100.00;-526.47;5008667;28;53375;-53
2023/02/27 00:40:15;;;;;;;;;6.50;6.25;;;;;-147.17;100.00;-526.47;5026913;28;51571;-51
2023/02/27 00:42:41;;;;;;;;;7.25;6.00;;;;;-147.17;100.00;-775.19;5019729;28;51024;-50
2023/02/27 00:45:07;;;;;;;;;6.50;6.50;;;;;-147.17;100.00;-775.19;5023848;28;51432;-52
2023/02/27 00:47:34;;;;;;;;;5.00;2.50;;;;;-147.17;100.00;-1023.88;5033282;28;51181;-51
2023/02/27 00:49:59;;;;;;;;;10.50;8.75;;;;;-147.17;100.00;-1272.53;5025539;28;51180;-52
2023/02/27 00:52:24;;;;;;;;;9.75;8.00;;;;;-147.17;100.00;-1521.19;5021182;28;51240;-52
2023/02/27 00:54:50;;;;;;;;;6.75;5.50;;;;;-147.17;100.00;-1272.53;5020067;28;50943;-51
2023/02/27 00:57:16;;;;;;;;;6.50;5.00;;;;;-147.17;100.00;-1769.84;5032589;28;52115;-52
2023/02/27 00:59:41;;;;;;;;;8.00;6.25;;;;;-147.17;100.00;-2018.47;5021539;28;52909;-50
2023/02/27 01:02:06;;;;;;;;;8.00;6.25;;;;;-147.17;100.00;-2267.06;5002376;28;51154;-52
2023/02/27 01:04:32;;;;;;;;;8.00;6.25;;;;;-147.17;100.00;-2764.22;5015940;28;51350;-50
2023/02/27 01:06:58;;;;;;;;;8.00;7.00;;;;;-147.17;100.00;-3012.78;5020413;28;51397;-49
2023/02/27 01:09:23;;;;;;;;;5.75;5.00;;;;;-147.17;100.00;-2764.22;5017423;28;51273;-51
2023/02/27 01:11:49;;;;;;;;;10.50;8.00;;;;;-147.17;100.00;-3012.78;5024742;28;51151;-51
2023/02/27 01:14:15;;;;;;;;;8.00;7.25;;;;;-147.17;100.00;-3509.84;5018927;28;51447;-52
2023/02/27 01:16:40;;;;;;;;;5.50;4.00;;;;;-147.17;100.00;-3509.84;5027001;28;52114;-51
2023/02/27 01:19:06;;;;;;;;;5.75;5.00;;;;;-147.17;100.00;-4006.88;5002913;28;51105;-50
2023/02/27 01:21:31;;;;;;;;;6.00;5.25;;;;;-147.17;100.00;-4006.88;5022596;28;51183;-51
2023/02/27 01:23:56;;;;;;;;;5.00;5.00;;;;;-147.17;100.00;-4006.88;5021908;28;51450;-50
2023/02/27 01:26:23;;;;;;;;;5.50;5.00;;;;;-147.17;100.00;-4503.81;5024532;28;51777;-50
2023/02/27 01:28:49;;;;;;;;;6.00;6.00;;;;;-147.17;100.00;-4503.81;5028297;28;51124;-50
2023/02/27 01:31:14;;;;;;;;;8.00;6.50;;;;;-147.17;100.00;-4752.25;5019046;28;51384;-50
2023/02/27 01:33:40;;;;;;;;;6.25;5.00;;;;;-147.17;100.00;-5249.09;5026170;28;51299;-49
2023/02/27 01:36:08;;;;;;;;;5.50;4.75;;;;;-147.17;100.00;-5000.69;5028715;28;51333;-50
2023/02/27 01:38:34;;;;;;;;;8.00;6.25;;;;;-147.17;100.00;-5249.09;5019543;28;51022;-51
2023/02/27 01:41:00;;;;;;;;;5.00;4.75;;;;;-147.17;100.00;-5249.09;5024652;28;51136;-50
2023/02/27 01:43:25;;;;;;;;;6.25;6.25;;;;;-147.17;100.00;-5497.50;4976370;28;51190;-52
2023/02/27 01:45:51;;;;;;;;;5.50;5.50;;;;;-147.17;100.00;-5249.09;5025664;28;52116;-52
2023/02/27 01:48:36;;;;;;;;;5.00;5.00;;;;;-147.17;100.00;-5745.88;5029532;28;51074;-51
2023/02/27 01:51:07;;;;;;;;;6.25;6.25;;;;;-147.17;100.00;-6242.59;5021456;28;51272;-50
2023/02/27 01:53:36;;;;;;;;;9.00;8.00;;;;;-147.17;100.00;-6242.59;5024268;28;51227;-50
2023/02/27 01:56:14;;;;;;;;;4.75;4.75;;;;;-147.17;100.00;-6242.59;5019658;28;53027;-52
2023/02/27 01:58:42;;;;;;;;;6.00;6.00;;;;;-147.17;100.00;-6490.94;5030297;28;52396;-51
2023/02/27 02:01:07;;;;;;;;;7.75;7.25;;;;;-147.17;100.00;-6739.25;5026423;28;51291;-51
2023/02/27 02:03:47;;;;;;;;;6.50;6.25;;;;;-147.17;100.00;-6739.25;5013234;28;51217;-50
2023/02/27 02:06:13;;;;;;;;;7.00;5.25;;;;;-147.17;100.00;-6987.56;5017164;28;51961;-51
2023/02/27 02:08:45;;;;;;;;;7.50;5.00;;;;;-147.17;100.00;-7235.84;5003416;28;51113;-50
2023/02/27 02:11:13;;;;;;;;;6.75;6.75;;;;;-147.17;100.00;-7235.84;5023312;28;51098;-52
2023/02/27 02:13:40;;;;;;;;;6.25;6.25;;;;;-147.17;100.00;-7235.84;5007516;28;51045;-52
2023/02/27 02:16:41;;;;;;;;;8.25;8.00;;;;;-147.17;100.00;-7235.84;5005053;28;52713;-53
2023/02/27 02:19:27;;;;;;;;;7.25;6.25;;;;;-147.17;100.00;-7484.09;5020901;28;52634;-52
2023/02/27 02:22:26;;;;;;;;;6.75;6.75;;;;;-147.17;100.00;-7732.34;5014893;28;51006;-51
2023/02/27 02:25:29;;;;;;;;;7.00;7.00;;;;;-147.17;100.00;-7484.09;5017206;28;51304;-51
2023/02/27 02:28:05;;;;;;;;;7.50;5.75;;;;;-147.17;100.00;-7732.34;5010925;28;51069;-52
2023/02/27 02:30:34;;;;;;;;;6.50;5.00;;;;;-147.17;100.00;-8228.81;5008213;28;51212;-50
2023/02/27 02:33:33;;;;;;;;;4.75;4.75;;;;;-147.17;100.00;-7980.59;5019599;28;50976;-52
2023/02/27 02:36:26;;;;;;;;;1.00;1.00;;;;;-147.17;100.00;-8228.81;5021199;28;51177;-52
2023/02/27 02:39:22;;;;;;;;;7.25;7.25;;;;;-147.17;100.00;-8228.81;5027768;28;51176;-51
2023/02/27 02:42:03;;;;;;;;;7.00;5.00;;;;;-147.17;100.00;-8477.03;5014926;28;50984;-49
2023/02/27 02:44:56;;;;;;;;;6.25;6.25;;;;;-147.17;100.00;-8477.03;5013449;28;51094;-52
2023/02/27 02:47:29;;;;;;;;;4.00;4.00;;;;;-147.17;100.00;-8228.81;5017454;28;51208;-53
2023/02/27 02:50:07;;;;;;;;;7.00;7.00;;;;;-147.17;100.00;-8228.81;5017564;28;52008;-52
2023/02/27 02:52:55;;;;;;;;;7.00;6.00;;;;;-147.17;100.00;-8477.03;5014083;28;51044;-52
2023/02/27 02:55:44;;;;;;;;;7.25;7.25;;;;;-147.17;100.00;-8725.22;5024118;28;51270;-53
2023/02/27 02:58:29;;;;;;;;;5.00;5.00;;;;;-147.17;100.00;-8973.38;5004718;28;51444;-50
2023/02/27 03:01:02;;;;;;;;;7.75;6.25;;;;;-147.17;100.00;-8973.38;5025847;28;51170;-52
2023/02/27 03:03:33;;;;;;;;;7.00;7.00;;;;;-147.17;100.00;-8725.22;5003956;28;51060;-50
2023/02/27 03:06:13;;;;;;;;;6.00;5.00;;;;;-147.17;100.00;-8973.38;5024744;28;51207;-51
2023/02/27 03:08:47;;;;;;;;;7.25;6.75;;;;;-147.17;100.00;-8973.38;5028805;28;51234;-51
2023/02/27 03:11:13;;;;;;;;;5.00;4.00;;;;;-147.17;100.00;-8973.38;5027488;28;52075;-51
2023/02/27 03:13:53;;;;;;;;;5.00;5.00;;;;;-147.17;100.00;-8973.38;5015929;28;51033;-51
2023/02/27 03:16:27;;;;;;;;;4.00;3.00;;;;;-147.17;100.00;-8973.38;5025584;28;51536;-51
2023/02/27 03:19:02;;;;;;;;;4.75;4.75;;;;;-147.17;100.00;-8973.38;5031365;28;51064;-50
2023/02/27 03:21:36;;;;;;;;;3.00;3.00;;;;;-147.17;100.00;-8725.22;5028798;28;51989;-53
2023/02/27 03:24:09;;;;;;;;;7.25;5.50;;;;;-147.17;100.00;-8973.38;5015745;28;51301;-51
2023/02/27 03:26:40;;;;;;;;;2.00;1.75;;;;;-147.17;100.00;-8973.38;5030037;28;50952;-51
2023/02/27 03:29:09;;;;;;;;;4.25;4.25;;;;;-147.17;100.00;-8973.38;5000930;28;51324;-50
2023/02/27 03:31:59;;;;;;;;;5.00;5.00;;;;;-147.17;100.00;-8973.38;5029497;28;52975;-50
2023/02/27 03:34:32;;;;;;;;;7.50;5.00;;;;;-147.17;100.00;-8477.03;5025074;28;51013;-51
2023/02/27 03:37:10;;;;;;;;;4.00;2.00;;;;;-147.17;100.00;-8973.38;5017298;28;51362;-49
2023/02/27 03:39:45;;;;;;;;;4.00;4.00;;;;;-147.17;100.00;-9221.53;5020199;28;51168;-51
2023/02/27 03:42:29;;;;;;;;;4.75;4.75;;;;;-147.17;100.00;-9221.53;5030716;28;51046;-52
2023/02/27 03:45:22;;;;;;;;;6.50;5.50;;;;;-147.17;100.00;-8973.38;5031660;28;54579;-52
2023/02/27 03:47:47;;;;;;;;;4.00;4.00;;;;;-147.17;100.00;-9221.53;5014143;28;51176;-51
2023/02/27 03:50:14;;;;;;;;;5.50;5.50;;;;;-147.17;100.00;-9221.53;5019232;28;51383;-52
2023/02/27 03:52:40;;;;;;;;;5.00;5.00;;;;;-147.17;100.00;-9221.53;5004037;28;51286;-50
2023/02/27 03:55:14;;;;;;;;;0.50;0.50;;;;;-147.17;100.00;-9221.53;5028447;28;51160;-51
2023/02/27 03:57:41;;;;;;;;;7.00;7.00;;;;;-147.17;100.00;-9469.69;5028954;28;50943;-51
2023/02/27 04:00:10;;;;;;;;;7.00;5.00;;;;;-147.17;100.00;-9469.69;5025707;28;51297;-51
2023/02/27 04:02:37;;;;;;;;;4.00;4.00;;;;;-147.17;100.00;-9469.69;5015612;28;53335;-50
2023/02/27 04:05:03;;;;;;;;;6.00;6.00;;;;;-147.17;100.00;-9469.69;5019419;28;51169;-53
2023/02/27 04:07:56;;;;;;;;;2.50;2.00;;;;;-147.17;100.00;-9469.69;5024995;28;51021;-49
2023/02/27 04:10:40;;;;;;;;;4.75;4.75;;;;;-147.17;100.00;-9717.81;5023043;28;50955;-52
2023/02/27 04:13:30;;;;;;;;;3.00;2.50;;;;;-147.17;100.00;-9717.81;5026581;28;51184;-50
2023/02/27 04:16:21;;;;;;;;;4.75;4.25;;;;;-147.17;100.00;-9717.81;5023642;28;51162;-52
2023/02/27 04:19:24;;;;;;;;;6.50;6.50;;;;;-147.17;100.00;-9717.81;5032431;28;51187;-50
2023/02/27 04:22:07;;;;;;;;;11.00;8.00;;;;;-147.17;100.00;-9717.81;5015785;28;51486;-50
2023/02/27 04:25:00;;;;;;;;;3.50;2.00;;;;;-147.17;100.00;-9965.91;5014315;28;51730;-50
2023/02/27 04:27:59;;;;;;;;;6.00;5.00;;;;;-147.17;100.00;-9965.91;5026699;28;51097;-51
2023/02/27 04:30:27;;;;;;;;;4.00;4.00;;;;;-147.17;100.00;-10214.00;5008436;28;51187;-51
2023/02/27 04:33:01;;;;;;;;;7.00;6.00;;;;;-147.17;100.00;-10214.00;5024216;28;51328;-51
2023/02/27 04:35:55;;;;;;;;;5.00;5.00;;;;;-147.17;100.00;-10214.00;5022784;28;51229;-52
2023/02/27 04:38:30;;;;;;;;;4.50;4.25;;;;;-147.17;100.00;-9965.91;5011627;28;51154;-51
2023/02/27 04:41:02;;;;;;;;;6.50;4.75;;;;;-147.17;100.00;-10710.16;5027600;28;51170;-50
2023/02/27 04:43:29;;;;;;;;;4.00;4.00;;;;;-147.17;100.00;-10710.16;5034213;28;51359;-50
2023/02/27 04:45:59;;;;;;;;;7.25;5.00;;;;;-147.17;100.00;-10710.16;5023981;28;51188;-50
2023/02/27 04:48:57;;;;;;;;;4.00;4.00;;;;;-147.17;100.00;-10710.16;5031929;28;51393;-49
2023/02/27 04:51:33;;;;;;;;;8.00;7.50;;;;;-147.17;100.00;-10710.16;5024915;28;51279;-52
2023/02/27 04:54:16;;;;;;;;;4.00;4.00;;;;;-147.17;100.00;-10710.16;5014116;28;50968;-51
2023/02/27 04:56:52;;;;;;;;;6.50;4.75;;;;;-147.17;100.00;-10710.16;5017733;28;51485;-50
2023/02/27 04:59:24;;;;;;;;;7.50;7.00;;;;;-147.17;100.00;-10958.19;5019940;28;50976;-52
2023/02/27 05:02:00;;;;;;;;;5.00;5.00;;;;;-147.17;100.00;-10958.19;5020289;28;51057;-54
2023/02/27 05:04:32;;;;;;;;;6.00;6.00;;;;;-147.17;100.00;-11206.22;5015905;28;51196;-51
2023/02/27 05:07:00;;;;;;;;;6.00;6.00;;;;;-147.17;100.00;-11454.25;5025395;28;51733;-51
2023/02/27 05:09:34;;;;;;;;;10.75;9.50;;;;;-147.17;100.00;-11702.25;5016692;28;51295;-51
2023/02/27 05:12:25;;;;;;;;;5.00;5.00;;;;;-147.17;100.00;-11702.25;5015962;28;51262;-52
2023/02/27 05:14:58;;;;;;;;;7.75;7.50;;;;;-147.17;100.00;-11702.25;5019137;28;51037;-49
2023/02/27 05:17:35;;;;;;;;;8.00;7.00;;;;;-147.17;100.00;-11950.22;5025425;28;52176;-51
2023/02/27 05:20:03;;;;;;;;;7.00;7.00;;;;;-147.17;100.00;-11950.22;5015057;28;51010;-52
2023/02/27 05:22:41;;;;;;;;;7.00;5.00;;;;;-147.17;100.00;-13189.88;5003439;28;51026;-50
2023/02/27 05:25:07;;;;;;;;;7.00;6.00;;;;;-147.17;100.00;-13189.88;5019001;28;51068;-52
2023/02/27 05:27:38;;;;;;;;;7.75;7.00;;;;;-147.17;100.00;-13685.63;5014470;28;51130;-52
2023/02/27 05:30:33;;;;;;;;;4.75;4.75;;;;;-147.17;100.00;-13685.63;5027680;28;51022;-52
2023/02/27 05:33:06;;;;;;;;;4.50;4.50;;;;;-147.17;100.00;-13933.50;5031387;28;51089;-51
2023/02/27 05:35:47;;;;;;;;;8.50;7.75;;;;;-147.17;100.00;-13933.50;5021108;28;50950;-53
2023/02/27 05:38:26;;;;;;;;;5.00;5.00;;;;;-147.17;100.00;-14429.16;5022973;28;52283;-52
2023/02/27 05:40:59;;;;;;;;;8.50;7.75;;;;;-147.17;100.00;-14429.16;5007904;28;51198;-51
2023/02/27 05:43:33;;;;;;;;;1.25;1.25;;;;;-147.17;100.00;-14429.16;5026770;28;51178;-51
2023/02/27 05:46:08;;;;;;;;;4.50;4.50;;;;;-147.17;100.00;-14429.16;5013032;28;51293;-51
2023/02/27 05:48:44;;;;;;;;;10.00;8.00;;;;;-147.17;100.00;-14676.94;5023453;28;51156;-53
2023/02/27 05:51:13;;;;;;;;;6.50;6.00;;;;;-147.17;100.00;-14676.94;5022541;28;50917;-51
2023/02/27 05:53:44;;;;;;;;;6.00;6.00;;;;;-147.17;100.00;-14924.75;5028772;28;50904;-52
2023/02/27 05:56:14;;;;;;;;;7.25;6.50;;;;;-147.17;100.00;-14924.75;5006766;28;52024;-50
2023/02/27 05:58:44;;;;;;;;;10.00;9.50;;;;;-147.17;100.00;-15172.50;5012808;28;51904;-53
2023/02/27 06:01:11;;;;;;;;;9.75;8.00;;;;;-147.17;100.00;-15172.50;5020982;28;51298;-50
2023/02/27 06:03:38;;;;;;;;;8.00;7.25;;;;;-147.17;100.00;-15172.50;5017831;28;51159;-53
2023/02/27 06:06:06;;;;;;;;;8.50;8.50;;;;;-147.17;100.00;-15420.25;5007048;28;51134;-52
2023/02/27 06:08:32;;;;;;;;;7.00;6.50;;;;;-147.17;100.00;-15420.25;5025410;28;51250;-50
2023/02/27 06:10:57;;;;;;;;;11.00;7.00;;;;;-147.17;100.00;-15420.25;5019311;28;51321;-52
2023/02/27 06:13:23;;;;;;;;;6.50;6.50;;;;;-147.17;100.00;-15420.25;5026333;28;51047;-50
2023/02/27 06:15:49;;;;;;;;;8.00;7.00;;;;;-147.17;100.00;-15668.00;5025314;28;51178;-52
2023/02/27 06:18:16;;;;;;;;;9.00;7.00;;;;;-147.17;100.00;-15668.00;5027380;28;51098;-52
2023/02/27 06:20:43;;;;;;;;;4.75;4.75;;;;;-147.17;100.00;-15668.00;5026401;28;51028;-52
2023/02/27 06:23:09;;;;;;;;;5.00;4.75;;;;;-147.17;100.00;-15915.72;5016476;28;51117;-52
2023/02/27 06:25:34;;;;;;;;;10.25;7.25;;;;;-147.17;100.00;-15915.72;5016294;28;51394;-58
2023/02/27 06:28:00;;;;;;;;;5.50;4.75;;;;;-147.17;100.00;-15915.72;5019710;28;51948;-52
2023/02/27 06:30:26;;;;;;;;;8.25;7.75;;;;;-147.17;100.00;-15915.72;5022649;28;51156;-53
2023/02/27 06:32:51;;;;;;;;;6.50;4.00;;;;;-147.17;100.00;-15915.72;5015429;28;50961;-53
2023/02/27 06:35:17;;;;;;;;;10.75;7.50;;;;;-147.17;100.00;-15915.72;5020966;28;50990;-53
2023/02/27 06:37:42;;;;;;;;;7.25;5.50;;;;;-147.17;100.00;-15917.19;5016860;28;51125;-53
2023/02/27 06:40:12;;;;;;;;;5.00;2.50;;;;;-147.17;100.00;-15917.19;5027468;28;51078;-52
2023/02/27 06:42:39;;;;;;;;;6.50;6.50;;;;;-147.17;100.00;-15917.19;5028497;28;51077;-52
2023/02/27 06:45:05;;;;;;;;;10.00;8.00;;;;;-147.17;100.00;-15917.19;5026452;28;51022;-52
2023/02/27 06:47:31;;;;;;;;;8.00;7.00;;;;;-147.17;100.00;-15917.19;5019362;28;52774;-52
2023/02/27 06:49:58;;;;;;;;;7.00;5.00;;;;;-147.17;100.00;-15917.19;5022080;28;51911;-52
2023/02/27 06:52:23;;;;;;;;;7.75;6.50;;;;;-147.17;100.00;-15917.19;5022080;28;51183;-53
2023/02/27 06:54:48;;;;;;;;;7.00;5.00;;;;;-147.17;100.00;-15917.19;5020348;28;51101;-52
2023/02/27 06:57:14;;;;;;;;;4.50;4.00;;;;;-147.17;100.00;-15917.19;5023558;28;51867;-52
2023/02/27 06:59:39;;;;;;;;;7.00;6.00;;;;;-147.17;100.00;-15917.19;5022639;28;51164;-51
2023/02/27 07:02:05;;;;;;;;;6.50;5.00;;;;;-147.17;100.00;-15917.19;5021991;28;51104;-55
2023/02/27 07:04:30;;;;;;;;;8.25;7.00;;;;;-147.17;100.00;-15917.19;5001534;28;51345;-53
2023/02/27 07:06:56;;;;;;;;;7.25;7.25;;;;;-147.17;100.00;-15917.19;5029916;28;51839;-51
2023/02/27 07:09:22;;;;;;;;;3.00;3.00;;;;;-147.17;100.00;-15917.19;4987912;28;51240;-53
2023/02/27 07:11:47;;;;;;;;;10.75;9.50;;;;;-147.17;100.00;-15917.19;5031767;28;51142;-51
2023/02/27 07:14:15;;;;;;;;;8.50;7.75;;;;;-147.17;100.00;-15917.19;5022729;28;50944;-53
2023/02/27 07:16:41;;;;;;;;;6.50;5.50;;;;;-147.17;100.00;-15917.19;5026738;28;52064;-52
2023/02/27 07:19:07;;;;;;;;;3.00;2.00;;;;;-147.17;100.00;-15917.19;5014528;28;51049;-52
2023/02/27 07:21:32;;;;;;;;;9.75;7.75;;;;;-147.17;100.00;-15917.19;5034206;28;51285;-52
2023/02/27 07:23:58;;;;;;;;;8.00;8.00;;;;;-147.17;100.00;-15917.19;5034473;28;51365;-51
2023/02/27 07:26:23;;;;;;;;;7.00;7.00;;;;;-147.17;100.00;-15917.19;5017602;28;51088;-50
2023/02/27 07:28:49;;;;;;;;;7.50;7.50;;;;;-147.17;100.00;-15917.19;5007125;28;51126;-52
2023/02/27 07:31:14;;;;;;;;;7.00;7.00;;;;;-147.17;100.00;-15917.19;5029488;28;51150;-52
2023/02/27 07:33:40;;;;;;;;;7.25;7.25;;;;;-147.17;100.00;-15917.19;5017914;28;51137;-59
2023/02/27 07:36:06;;;;;;;;;8.75;8.75;;;;;-147.17;100.00;-15917.19;5030515;28;52931;-52
2023/02/27 07:38:32;;;;;;;;;7.50;7.50;;;;;-147.17;100.00;-15917.19;5033228;28;51017;-52
2023/02/27 07:40:57;;;;;;;;;10.25;8.75;;;;;-147.17;100.00;-15917.19;5031788;28;51171;-50
2023/02/27 07:43:23;;;;;;;;;8.25;8.25;;;;;-147.17;100.00;-15917.19;5027764;28;51130;-49
2023/02/27 07:45:50;;;;;;;;;8.75;7.50;;;;;-147.17;100.00;-15917.19;5024306;28;51186;-50
2023/02/27 07:48:17;;;;;;;;;5.00;5.00;;;;;-147.17;100.00;-15917.19;5031543;28;51178;-50
2023/02/27 07:50:42;;;;;;;;;4.25;4.25;;;;;-147.17;100.00;-15915.72;5026005;28;51219;-51
2023/02/27 07:53:08;;;;;;;;;8.00;7.00;;;;;-147.17;100.00;-15915.72;5014569;28;51166;-50
2023/02/27 07:55:34;;;;;;;;;7.00;7.00;;;;;-147.17;100.00;-15915.72;5031608;28;52636;-50
2023/02/27 07:58:00;;;;;;;;;11.50;8.50;;;;;-147.17;100.00;-15915.72;5017888;28;51061;-51
2023/02/27 08:00:25;;;;;;;;;8.00;8.00;;;;;-147.17;100.00;-15917.19;5022387;28;50982;-49
2023/02/27 08:02:50;;;;;;;;;7.00;7.00;;;;;-147.17;100.00;-15917.19;5018097;28;51286;-52
2023/02/27 08:05:16;;;;;;;;;10.75;8.75;;;;;-147.17;100.00;-15917.19;5017230;28;52574;-51
2023/02/27 08:07:41;;;;;;;;;8.00;8.00;;;;;-147.17;100.00;-15915.72;5019980;28;51579;-51
2023/02/27 08:10:08;;;;;;;;;8.50;7.50;;;;;-147.17;100.00;-11206.22;5021457;28;51233;-50
2023/02/27 08:12:33;;;;;;;;;9.25;8.50;;;;;-147.17;100.00;-8725.22;5025257;28;51244;-51
2023/02/27 08:14:59;;;;;;;;;10.00;10.00;;;;;-147.17;100.00;-10958.19;5018123;28;51897;-53
2023/02/27 08:17:24;;;;;;;;;5.50;3.25;;;;;-147.17;100.00;-9221.53;5024751;28;53154;-50
2023/02/27 08:19:50;;;;;;;;;7.00;6.50;;;;;-147.17;100.00;-6739.25;5016478;28;51125;-51
2023/02/27 08:22:15;;;;;;;;;8.00;8.00;;;;;-147.17;100.00;-3261.34;5023617;28;51082;-49
2023/02/27 08:24:41;;;;;;;;;7.75;7.75;;;;;-147.17;100.00;1961.44;5015408;28;51974;-49
2023/02/27 08:27:06;;;;;;;;;6.50;5.50;;;;;-147.17;100.00;5696.34;5032368;28;51263;-51
2023/02/27 08:29:32;;;;;;;;;7.75;7.00;;;;;-147.17;100.00;11180.69;5021410;28;51767;-51
2023/02/27 08:31:58;;;;;;;;;7.00;7.00;;;;;-147.17;100.00;14674.81;5017367;28;51191;-51
2023/02/27 08:34:27;;;;;;;;;8.00;8.00;;;;;-147.17;100.00;22923.34;5027219;28;52012;-49
2023/02/27 08:36:52;;;;;;;;;9.00;8.25;;;;;-147.17;100.00;29696.91;5022854;28;51019;-51
2023/02/27 08:39:19;;;;;;;;;7.75;6.00;;;;;-147.17;100.00;38106.81;5006134;28;52323;-50
2023/02/27 08:41:44;;;;;;;;;3.00;3.00;;;;;-147.17;100.00;35768.25;5017062;28;51455;-52
2023/02/27 08:44:11;;;;;;;;;3.25;3.25;;;;;-147.17;100.00;37843.84;5012173;28;52271;-51
2023/02/27 08:46:37;;;;;;;;;5.00;4.25;;;;;-147.17;100.00;35427.03;5029393;28;51127;-48
2023/02/27 08:49:03;;;;;;;;;9.00;9.00;;;;;-147.17;100.00;41208.69;5019725;28;51164;-51
2023/02/27 08:51:29;;;;;;;;;7.00;7.00;;;;;-147.17;100.00;41564.19;5020443;28;51373;-50
2023/02/27 08:53:57;;;;;;;;;5.75;5.75;;;;;-147.17;100.00;40207.19;5030613;28;51172;-53
2023/02/27 08:56:24;;;;;;;;;4.50;4.50;;;;;-147.17;100.00;38899.72;5026419;28;50959;-49
2023/02/27 08:58:50;;;;;;;;;6.00;6.00;;;;;-147.17;100.00;39730.09;5018185;28;51320;-51
2023/02/27 09:01:15;;;;;;;;;6.25;5.00;;;;;-147.17;100.00;40230.75;5020281;28;51120;-51
2023/02/27 09:03:40;;;;;;;;;8.75;8.25;;;;;-147.17;100.00;39963.72;5028860;28;51364;-50
2023/02/27 09:06:06;;;;;;;;;9.50;7.75;;;;;-147.17;100.00;40592.06;5022137;28;51231;-51
2023/02/27 09:08:32;;;;;;;;;7.25;7.00;;;;;-147.17;100.00;41467.97;5018356;28;52852;-50
2023/02/27 09:10:57;;;;;;;;;6.50;6.00;;;;;-147.17;100.00;40874.84;5005787;28;51404;-48
2023/02/27 09:13:22;;;;;;;;;4.75;4.75;;;;;-147.17;100.00;42222.25;5023770;28;51752;-51
2023/02/27 09:15:48;;;;;;;;;5.50;5.50;;;;;-147.17;100.00;41835.25;5021363;28;51228;-50
2023/02/27 09:18:13;;;;;;;;;10.00;10.00;;;;;-147.17;100.00;42239.94;5019296;28;51683;-52
2023/02/27 09:20:40;;;;;;;;;5.25;5.25;;;;;-147.17;100.00;43357.91;5031098;28;51359;-50
2023/02/27 09:23:08;;;;;;;;;7.00;6.00;;;;;-147.17;100.00;43587.81;5009243;28;51138;-52
2023/02/27 09:25:33;;;;;;;;;11.00;7.00;;;;;-147.17;100.00;43403.09;5031974;28;51000;-52
2023/02/27 09:27:59;;;;;;;;;6.50;6.00;;;;;-147.17;100.00;43202.66;5017501;28;51123;-49
2023/02/27 09:30:24;;;;;;;;;6.00;5.75;;;;;-147.17;100.00;43342.19;4995573;28;51000;-52
2023/02/27 09:32:50;;;;;;;;;7.00;7.00;;;;;-147.17;100.00;43202.66;5008502;28;51899;-53
2023/02/27 09:35:16;;;;;;;;;5.50;5.00;;;;;-147.17;100.00;44560.72;5013358;28;51016;-50
2023/02/27 09:37:45;;;;;;;;;7.00;7.00;;;;;-147.17;100.00;44218.69;5013050;28;51071;-52
2023/02/27 09:40:31;;;;;;;;;8.25;8.00;;;;;-147.17;100.00;44305.19;5013534;28;51004;-50
2023/02/27 09:43:01;;;;;;;;;3.00;3.00;;;;;-147.17;100.00;44446.69;5023048;28;52375;-51
2023/02/27 09:45:30;;;;;;;;;6.75;6.00;;;;;-147.17;100.00;44605.91;5032212;28;51231;-51
2023/02/27 09:48:02;;;;;;;;;7.00;7.00;;;;;-147.17;100.00;45085.56;5033295;28;50922;-52
2023/02/27 09:50:39;;;;;;;;;4.00;4.00;;;;;-147.17;100.00;45594.78;5031562;28;51269;-52
2023/02/27 09:53:26;;;;;;;;;6.00;6.00;;;;;-147.17;100.00;45238.91;5016152;28;51718;-52
2023/02/27 09:55:55;;;;;;;;;7.50;6.50;;;;;-147.17;100.00;46019.50;5019478;28;51006;-52
2023/02/27 09:58:23;;;;;;;;;8.00;7.50;;;;;-147.17;100.00;46151.25;5032835;28;51211;-51
2023/02/27 10:00:59;;;;;;;;;6.75;6.00;;;;;-147.17;100.00;45846.47;5030945;28;51095;-52
2023/02/27 10:03:40;;;;;;;;;6.00;6.00;;;;;-147.17;100.00;46121.75;5031863;28;51961;-50
2023/02/27 10:06:11;;;;;;;;;7.25;7.00;;;;;-147.17;100.00;45986.06;5014240;28;51019;-51
2023/02/27 10:08:52;;;;;;;;;5.50;5.00;;;;;-147.17;100.00;46251.53;5032729;28;50980;-51
2023/02/27 10:11:29;;;;;;;;;5.50;5.50;;;;;-147.17;100.00;46332.19;5027735;28;51145;-53
2023/02/27 10:14:11;;;;;;;;;5.50;5.50;;;;;-147.17;100.00;45724.56;5031873;28;52089;-52
2023/02/27 10:16:38;;;;;;;;;5.00;5.00;;;;;-147.17;100.00;45185.84;5018879;28;51282;-51
2023/02/27 10:19:15;;;;;;;;;7.25;6.25;;;;;-147.17;100.00;45866.13;5017847;28;51033;-50
2023/02/27 10:21:45;;;;;;;;;6.00;5.00;;;;;-147.17;100.00;46141.44;5023663;28;51114;-50
2023/02/27 10:24:39;;;;;;;;;7.00;7.00;;;;;-147.17;100.00;45757.97;5012081;28;52297;-51
2023/02/27 10:27:10;;;;;;;;;7.75;7.25;;;;;-147.17;100.00;45685.22;5012497;28;50908;-48
2023/02/27 10:29:40;;;;;;;;;7.00;7.00;;;;;-147.17;100.00;45323.47;5012408;28;50906;-49
2023/02/27 10:32:17;;;;;;;;;6.00;6.00;;;;;-147.17;100.00;45465.03;5017320;28;51296;-48
2023/02/27 10:34:50;;;;;;;;;8.67;8.00;;;;;-147.17;100.00;45516.13;5019523;28;51801;-52
2023/02/27 10:37:19;;;;;;;;;8.00;6.67;;;;;-147.17;100.00;45321.50;5030555;28;51038;-51
2023/02/27 10:39:54;;;;;;;;;7.25;7.00;;;;;-147.17;100.00;45339.19;5032283;28;50955;-51
2023/02/27 10:42:22;;;;;;;;;6.00;5.00;;;;;-147.17;100.00;45504.34;5013554;28;51356;-52
2023/02/27 10:44:52;;;;;;;;;5.00;5.00;;;;;-147.17;100.00;45581.03;5003850;28;53421;-51
2023/02/27 10:47:20;;;;;;;;;6.00;5.00;;;;;-147.17;100.00;45419.81;5030871;28;51136;-52
2023/02/27 10:49:46;;;;;;;;;7.00;7.00;;;;;-147.17;100.00;45620.34;5030507;28;51099;-51
2023/02/27 10:52:14;;;;;;;;;7.00;6.67;;;;;-147.17;100.00;45773.72;5015873;28;50902;-51
2023/02/27 10:54:40;;;;;;;;;6.00;6.00;;;;;-147.17;100.00;46167.00;5012103;28;51991;-52
2023/02/27 10:57:45;;;;;;;;;5.00;5.00;;;;;-147.17;100.00;46237.78;5023954;28;51084;-50
2023/02/27 11:00:34;;;;;;;;;6.00;6.00;;;;;-147.17;100.00;46054.91;5006262;28;51266;-50
2023/02/27 11:03:00;;;;;;;;;3.00;3.00;;;;;-147.17;100.00;45960.50;5012321;28;50971;-52
2023/02/27 11:05:29;;;;;;;;;5.67;5.00;;;;;-147.17;100.00;46615.38;5022956;28;51091;-52
2023/02/27 11:08:09;;;;;;;;;5.00;5.00;;;;;-147.17;100.00;46554.41;5012161;28;51005;-52
2023/02/27 11:10:34;;;;;;;;;5.67;5.33;;;;;-147.17;100.00;46717.63;5016371;28;51317;-52
2023/02/27 11:13:08;;;;;;;;;4.00;3.67;;;;;-147.17;100.00;46731.41;5020108;28;51396;-50
2023/02/27 11:15:37;;;;;;;;;3.00;3.00;;;;;-147.17;100.00;47032.31;5014354;28;51171;-52
2023/02/27 11:18:27;;;;;;;;;4.00;4.00;;;;;-147.17;100.00;47366.72;5031780;28;50982;-52
2023/02/27 11:21:07;;;;;;;;;4.00;4.00;;;;;-147.17;100.00;47461.13;5009367;28;51269;-52
2023/02/27 11:23:33;;;;;;;;;5.67;5.67;;;;;-147.17;100.00;47152.31;5007263;28;51127;-50
2023/02/27 11:26:10;;;;;;;;;4.00;4.00;;;;;-147.17;100.00;46552.44;5025545;28;51821;-50